Latest Weather Observations for Mangalore

IDV60801

Issued at 8:35 pm EDT Friday 24 October 2014 (issued every 30 minutes, with the page automatically refreshed every 10 minutes)

About weather observations | Map of weather stations | Latest weather observations for VIC | Other Formats
Station Details ID: 088109 Name: MANGALORE AIRPORT Lat: -36.89 Lon: 145.19 Height: 140.8 m
Data from the previous 72 hours. | See also: Recent months at Mangalore
Date/Time
EDT
Temp
°C
App
Temp
°C
Dew
Point
Rel
Hum
%
Delta-T
°C
Wind Press
QNH
hPa
Press
MSL
hPa
Rain
since 9 am
mm
Dir
 
Spd
km/h
Gust
km/h
Spd
kts
Gust
kts
24/08:30pm 19.7 17.7 8.7 49 5.8 WNW 9 11 5 6 1012.3 1012.2 0.0
24/08:00pm 22.4 22.0 8.1 40 7.6 WNW 0 0 0 0 1012.2 1012.1 0.0
24/07:30pm 25.2 22.7 6.4 30 9.8 WNW 9 9 5 5 1011.8 1011.7 0.0
24/07:00pm 28.2 25.9 7.4 27 11.2 NNW 9 11 5 6 1011.4 1011.3 0.0
24/06:30pm 29.7 27.0 5.7 22 12.7 NNW 9 13 5 7 1010.9 1010.9 0.0
24/06:00pm 30.5 27.8 5.7 21 13.2 W 9 15 5 8 1010.7 1010.7 0.0
24/05:30pm 30.7 27.1 6.6 22 13.0 WNW 15 20 8 11 1010.7 1010.7 0.0
24/05:00pm 30.5 26.1 5.0 20 13.4 W 17 24 9 13 1010.6 1010.6 0.0
24/04:30pm 30.2 26.4 7.4 24 12.4 NNW 17 24 9 13 1010.7 1010.7 0.0
24/04:00pm 29.9 27.2 8.9 27 11.7 W 13 20 7 11 1010.9 1010.9 0.0
24/03:30pm 30.1 26.4 9.6 28 11.6 WNW 19 24 10 13 1011.0 1011.0 0.0
24/03:00pm 29.6 26.4 11.2 32 10.7 W 19 30 10 16 1011.1 1011.1 0.0
24/02:30pm 28.7 25.9 9.9 31 10.6 WNW 15 28 8 15 1011.7 1011.6 0.0
24/02:00pm 28.8 26.3 12.2 35 9.7 W 17 24 9 13 1011.8 1011.7 0.0
24/01:30pm 28.4 25.4 12.7 38 9.3 WNW 20 28 11 15 1012.0 1011.9 0.0
24/01:00pm 27.5 26.1 13.4 41 8.4 NW 13 22 7 12 1012.0 1011.9 0.0
24/12:30pm 27.4 25.5 13.0 41 8.5 NW 15 20 8 11 1012.4 1012.3 0.0
24/12:00pm 26.9 25.2 13.6 44 7.9 NNW 15 22 8 12 1012.6 1012.5 0.0
24/11:30am 26.2 23.4 12.6 43 7.9 NNW 19 22 10 12 1012.7 1012.6 0.0
24/11:00am 26.0 23.4 12.1 42 8.0 N 17 24 9 13 1012.7 1012.6 0.0
24/10:30am 25.3 22.3 11.8 43 7.7 N 19 26 10 14 1012.7 1012.6 0.0
24/10:00am 24.7 20.6 11.3 43 7.6 N 24 32 13 17 1012.6 1012.5 0.0
24/09:30am 24.3 19.3 10.9 43 7.5 NNE 28 35 15 19 1012.7 1012.6 0.0
24/09:00am 23.2 18.1 10.6 45 7.0 NNE 28 39 15 21 1012.8 1012.7 0.0
24/08:30am 22.6 17.9 10.7 47 6.6 NNE 26 35 14 19 1012.9 1012.8 0.0
24/08:00am 21.8 18.5 11.5 52 5.8 NNE 20 32 11 17 1013.1 1013.0 0.0
24/07:30am 20.7 17.3 11.3 55 5.2 NE 20 30 11 16 1012.6 1012.5 0.0
24/07:00am 19.5 16.3 11.8 61 4.3 NE 20 28 11 15 1012.2 1012.1 0.0
24/06:46am 19.3 16.9 12.6 65 3.8 NNE 17 24 9 13 1012.2 1012.1 0.0
24/06:30am 14.3 13.8 13.7 96 0.3 SW 9 17 5 9 1012.2 1012.1 0.0
24/06:00am 12.3 11.7 11.7 96 0.3 SW 6 7 3 4 1012.1 1012.0 0.0
24/05:30am 12.4 11.8 11.8 96 0.3 SW 6 9 3 5 1012.0 1011.9 0.0
24/05:00am 12.9 12.2 12.1 95 0.4 SW 7 9 4 5 1011.7 1011.6 0.0
24/04:30am 13.2 12.6 12.3 94 0.5 SSW 7 11 4 6 1011.5 1011.4 0.0
24/04:00am 13.7 13.2 12.8 94 0.5 SW 7 11 4 6 1011.7 1011.6 0.0
24/03:30am 14.2 13.5 13.2 94 0.6 SSW 9 13 5 7 1011.7 1011.6 0.0
24/03:00am 14.4 13.0 13.3 93 0.6 SSW 13 19 7 10 1012.0 1011.9 0.0
24/02:30am 14.6 13.2 13.5 93 0.6 SSW 13 17 7 9 1012.3 1012.2 0.0
24/02:00am 14.7 12.9 13.4 92 0.7 SSW 15 20 8 11 1012.7 1012.6 0.0
24/01:30am 14.8 13.0 13.3 91 0.8 SSW 15 19 8 10 1013.1 1013.0 0.0
24/01:00am 15.0 12.8 13.4 90 0.9 SSW 17 22 9 12 1013.3 1013.2 0.0
24/12:30am 15.1 12.5 13.3 89 1.0 SSW 19 26 10 14 1013.4 1013.3 0.0
24/12:00am 15.3 12.5 13.3 88 1.1 SSW 20 26 11 14 1013.5 1013.4 0.0
 
Date/Time
EDT
Temp
°C
App
Temp
°C
Dew
Point
Rel
Hum
%
Delta-T
°C
Wind Press
QNH
hPa
Press
MSL
hPa
Rain
since 9 am
mm
Dir
 
Spd
km/h
Gust
km/h
Spd
kts
Gust
kts
23/11:30pm 15.6 12.9 13.4 87 1.2 SSW 20 26 11 14 1013.5 1013.4 0.0
23/11:00pm 16.0 13.9 13.5 85 1.4 SSW 17 24 9 13 1013.6 1013.5 0.0
23/10:30pm 16.2 14.1 13.5 84 1.5 SSW 17 24 9 13 1013.8 1013.7 0.0
23/10:00pm 16.6 14.0 13.3 81 1.9 SSW 19 26 10 14 1013.6 1013.5 0.0
23/09:30pm 17.1 14.5 13.2 78 2.2 SSW 19 26 10 14 1013.4 1013.3 0.0
23/09:00pm 17.8 15.2 13.3 75 2.6 SSW 19 24 10 13 1013.2 1013.1 0.0
23/08:30pm 18.6 15.9 13.5 72 2.9 SSW 20 26 11 14 1013.0 1012.9 0.0
23/08:00pm 19.5 16.8 13.4 68 3.5 SSW 20 30 11 16 1012.6 1012.5 0.0
23/07:30pm 20.7 17.7 13.6 64 4.1 SSW 22 30 12 16 1012.6 1012.5 0.0
23/07:00pm 22.1 19.2 14.0 60 4.7 SSW 22 30 12 16 1012.4 1012.3 0.0
23/06:30pm 23.1 20.6 14.1 57 5.3 SSW 20 28 11 15 1012.4 1012.3 0.0
23/06:00pm 23.8 20.6 14.2 55 5.7 SSW 24 33 13 18 1012.5 1012.4 0.0
23/05:30pm 24.6 21.3 14.1 52 6.2 SSW 24 33 13 18 1012.7 1012.6 0.0
23/05:00pm 25.1 22.3 14.3 51 6.4 SSW 22 30 12 16 1012.8 1012.7 0.0
23/04:30pm 25.2 22.0 14.3 50 6.5 SSW 24 33 13 18 1012.9 1012.8 0.0
23/04:00pm 25.8 23.1 14.6 50 6.7 SSW 22 30 12 16 1013.0 1012.9 0.0
23/03:30pm 25.9 23.3 15.0 51 6.6 SSW 22 32 12 17 1013.4 1013.3 0.0
23/03:00pm 25.6 22.9 14.7 51 6.6 SW 22 32 12 17 1013.7 1013.6 0.0
23/02:30pm 26.0 23.9 15.1 51 6.6 SW 20 26 11 14 1014.1 1014.0 0.0
23/02:00pm 25.6 22.6 14.7 51 6.6 SW 24 30 13 16 1014.7 1014.6 0.0
23/01:30pm 25.9 23.6 14.7 50 6.7 SW 20 32 11 17 1015.2 1015.1 0.0
23/01:00pm 26.8 24.3 14.2 46 7.6 SSW 20 26 11 14 1015.3 1015.2 0.0
23/12:30pm 25.7 23.1 13.9 48 7.0 SSW 20 28 11 15 1015.8 1015.8 0.0
23/12:00pm 24.1 21.0 13.3 51 6.3 SSW 22 30 12 16 1016.3 1016.3 0.0
23/11:30am 22.9 19.5 13.7 56 5.4 SSW 24 32 13 17 1016.9 1016.9 0.0
23/11:00am 21.2 17.6 12.9 59 4.7 SSW 24 33 13 18 1017.2 1017.2 0.0
23/10:30am 21.5 18.7 13.2 59 4.8 S 20 28 11 15 1017.6 1017.6 0.0
23/10:00am 20.1 16.4 12.8 63 4.1 S 24 32 13 17 1017.9 1017.9 0.0
23/09:30am 18.8 15.1 12.8 68 3.4 S 24 32 13 17 1017.9 1017.9 0.0
23/09:00am 17.8 14.1 12.7 72 2.9 S 24 32 13 17 1017.9 1017.9 0.0
23/08:30am 16.5 12.7 12.3 76 2.3 S 24 32 13 17 1017.9 1017.9 0.0
23/08:00am 15.7 12.6 12.3 80 1.9 SSW 20 32 11 17 1017.7 1017.7 0.0
23/07:30am 14.7 11.6 12.2 85 1.4 SSW 20 28 11 15 1017.6 1017.6 0.0
23/07:00am 14.1 11.0 12.3 89 1.0 SSW 20 30 11 16 1017.2 1017.2 0.0
23/06:30am 13.7 10.6 12.1 90 0.9 SSW 20 28 11 15 1016.8 1016.8 0.0
23/06:00am 13.7 10.6 12.1 90 0.9 SSW 20 30 11 16 1016.8 1016.8 0.0
23/05:30am 13.8 10.9 12.2 90 0.9 SSW 19 24 10 13 1016.6 1016.6 0.0
23/05:00am 13.9 10.9 11.8 87 1.1 SSW 19 24 10 13 1016.4 1016.4 0.0
23/04:30am 14.5 11.4 11.6 83 1.6 SSW 19 24 10 13 1016.2 1016.2 0.0
23/04:00am 15.2 12.2 11.8 80 1.8 SSW 19 24 10 13 1016.6 1016.6 0.0
23/03:30am 16.0 13.3 11.6 75 2.4 SSW 17 24 9 13 1016.5 1016.5 0.0
23/03:00am 16.6 13.5 11.5 72 2.8 SSW 19 26 10 14 1016.5 1016.5 0.0
23/02:30am 17.0 14.2 11.5 70 3.0 SSW 17 22 9 12 1016.6 1016.6 0.0
23/02:00am 17.2 14.9 11.7 70 3.0 SSW 15 20 8 11 1016.6 1016.6 0.0
23/01:30am 18.0 14.7 11.6 66 3.5 SSW 20 30 11 16 1016.9 1016.9 0.0
23/01:00am 19.9 16.4 12.2 61 4.3 SW 22 28 12 15 1016.9 1016.9 0.0
23/12:30am 19.1 18.4 12.1 64 3.9 ESE 7 9 4 5 1016.3 1016.3 0.0
23/12:00am 20.5 19.2 12.5 60 4.5 ESE 11 13 6 7 1016.1 1016.1 0.0
 
Date/Time
EDT
Temp
°C
App
Temp
°C
Dew
Point
Rel
Hum
%
Delta-T
°C
Wind Press
QNH
hPa
Press
MSL
hPa
Rain
since 9 am
mm
Dir
 
Spd
km/h
Gust
km/h
Spd
kts
Gust
kts
22/11:30pm 22.3 20.6 12.5 53 5.6 ESE 13 13 7 7 1016.3 1016.3 0.0
22/11:00pm 20.9 19.0 13.1 61 4.5 SE 15 19 8 10 1017.1 1017.1 0.0
22/10:30pm 22.7 21.7 12.3 52 5.9 W 9 11 5 6 1018.2 1018.2 0.0
22/10:00pm 24.8 23.4 11.0 42 7.8 W 9 20 5 11 1018.6 1018.6 0.0
22/09:47pm 26.0 22.0 11.7 41 8.2 NNW 24 32 13 17 1018.8 1018.7 0.0
22/09:38pm 20.8 16.4 12.8 60 4.6 W 28 39 15 21 1018.3 1018.3 0.0
22/09:30pm 19.0 18.0 12.3 65 3.8 NNE 9 9 5 5 1016.8 1016.8 0.0
22/09:00pm 19.7 19.0 12.0 61 4.3 NNE 7 9 4 5 1016.7 1016.7 0.0
22/08:30pm 20.8 20.3 12.5 59 4.7 NNE 7 7 4 4 1016.5 1016.5 0.0
22/08:00pm 23.2 22.7 11.9 49 6.4 NNE 6 9 3 5 1016.4 1016.4 0.0
22/07:30pm 24.6 23.3 11.2 43 7.6 NNE 9 11 5 6 1016.0 1016.0 0.0
22/07:00pm 25.8 23.9 10.4 38 8.6 NNE 11 15 6 8 1015.7 1015.7 0.0
22/06:30pm 26.6 24.3 10.3 36 9.2 N 13 17 7 9 1015.6 1015.5 0.0
22/06:00pm 27.6 25.4 9.4 32 10.1 NNE 11 17 6 9 1016.0 1016.0 0.0
22/05:30pm 28.2 25.0 9.9 32 10.3 NNE 17 20 9 11 1016.2 1016.2 0.0
22/05:00pm 29.9 27.2 10.5 30 11.1 NNE 15 26 8 14 1016.4 1016.4 0.0
22/04:30pm 29.1 26.1 9.3 29 11.1 N 15 22 8 12 1016.7 1016.7 0.0
22/04:00pm 29.2 25.4 9.8 30 10.9 N 20 24 11 13 1016.9 1016.9 0.0
22/03:30pm 29.8 26.6 11.3 32 10.7 NE 19 26 10 14 1017.1 1017.1 0.0
22/03:00pm 28.9 25.9 10.6 32 10.4 N 17 22 9 12 1017.5 1017.5 0.0
22/02:30pm 28.1 24.6 10.3 33 10.1 N 19 32 10 17 1018.1 1018.1 0.0
22/02:00pm 28.6 25.2 11.2 34 10.0 NNE 20 30 11 16 1018.6 1018.6 0.0
22/01:30pm 27.4 23.7 10.2 34 9.7 NNE 20 32 11 17 1019.0 1018.9 0.0
22/01:00pm 26.6 23.1 10.3 36 9.1 NNE 19 26 10 14 1019.4 1019.3 0.0
22/12:30pm 26.1 22.5 10.7 38 8.7 NNE 20 28 11 15 1019.9 1019.8 0.0
22/12:00pm 25.2 21.8 10.6 40 8.2 NNE 19 28 10 15 1020.3 1020.2 0.0
22/11:30am 23.9 20.5 10.6 43 7.4 NE 19 30 10 16 1021.1 1021.0 0.0
22/11:00am 23.1 19.4 10.2 44 7.1 NNE 20 28 11 15 1021.6 1021.5 0.0
22/10:30am 22.4 17.9 9.9 45 6.8 NNE 24 32 13 17 1021.8 1021.8 0.0
22/10:00am 21.6 17.2 10.4 49 6.1 NNE 24 32 13 17 1021.9 1021.9 0.0
22/09:30am 20.6 15.1 10.4 52 5.6 NNE 30 39 16 21 1022.1 1022.1 0.0
22/09:00am 19.2 14.2 9.7 54 5.1 NNE 26 41 14 22 1022.2 1022.2 0.0
22/08:30am 18.1 14.4 10.2 60 4.2 NNE 20 32 11 17 1022.5 1022.5 0.0
22/08:00am 14.2 14.7 11.5 84 1.4 CALM 0 0 0 0 1022.5 1022.5 0.0
22/07:30am 11.5 11.7 10.7 95 0.4 CALM 0 0 0 0 1022.5 1022.5 0.0
22/07:00am 9.5 9.2 8.6 94 0.4 CALM 0 0 0 0 1022.4 1022.4 0.0
22/06:30am 9.2 8.7 7.8 91 0.7 CALM 0 0 0 0 1022.4 1022.4 0.0
22/06:00am 9.6 9.1 7.7 88 0.9 CALM 0 0 0 0 1022.1 1022.1 0.0
22/05:30am 10.0 9.6 8.4 90 0.8 CALM 0 0 0 0 1021.8 1021.8 0.0
22/05:00am 9.3 8.5 6.7 84 1.2 CALM 0 0 0 0 1021.6 1021.5 0.0
22/04:30am 10.4 9.5 7.8 84 1.3 NNE 2 6 1 3 1021.7 1021.6 0.0
22/04:00am 12.0 10.5 8.3 78 1.8 NNE 6 7 3 4 1021.7 1021.6 0.0
22/03:30am 11.9 9.8 8.4 79 1.7 NNE 9 9 5 5 1021.9 1021.9 0.0
22/03:00am 13.3 11.4 9.0 75 2.2 NNE 9 11 5 6 1022.1 1022.1 0.0
22/02:30am 14.4 12.5 9.2 71 2.7 NNE 9 11 5 6 1021.9 1021.9 0.0
22/02:00am 15.1 13.0 9.9 71 2.7 NE 11 13 6 7 1022.0 1022.0 0.0
22/01:30am 13.8 11.3 9.8 77 2.1 NNE 13 15 7 8 1022.3 1022.3 0.0
22/01:00am 11.7 11.5 8.9 83 1.4 CALM 0 4 0 2 1022.7 1022.7 0.0
22/12:30am 12.3 12.2 9.5 83 1.4 CALM 0 0 0 0 1023.0 1023.0 0.0
22/12:00am 12.8 12.7 9.3 79 1.8 CALM 0 0 0 0 1023.3 1023.3 0.0
 
Date/Time
EDT
Temp
°C
App
Temp
°C
Dew
Point
Rel
Hum
%
Delta-T
°C
Wind Press
QNH
hPa
Press
MSL
hPa
Rain
since 9 am
mm
Dir
 
Spd
km/h
Gust
km/h
Spd
kts
Gust
kts
21/11:30pm 13.5 13.4 9.4 76 2.1 CALM 0 0 0 0 1023.3 1023.3 0.0
21/11:00pm 14.2 14.2 9.8 75 2.3 CALM 0 0 0 0 1023.4 1023.4 0.0
21/10:30pm 15.5 15.6 10.1 70 2.8 CALM 0 0 0 0 1023.6 1023.6 0.0
21/10:00pm 15.9 15.9 9.8 67 3.2 CALM 0 0 0 0 1023.6 1023.6 0.0
21/09:30pm 15.6 14.5 9.9 69 3.0 NNE 6 7 3 4 1023.4 1023.4 0.0
21/09:00pm 17.4 15.7 9.8 61 4.0 NNE 9 11 5 6 1023.2 1023.2 0.0

Other Formats:

Comma delimited format used in spreadsheet applications
http://www.bom.gov.au/fwo/IDV60801/IDV60801.94874.axf

JavaScript Object Notation format (JSON) in row-major order
http://www.bom.gov.au/fwo/IDV60801/IDV60801.94874.json